sensor_id;sensor_type;location;lat;lon;timestamp;temperature;humidity
68912;SHT31;55953;51.650;-0.522;2022-07-22T00:01:26;18.96;70.85
68912;SHT31;55953;51.650;-0.522;2022-07-22T00:03:54;18.96;70.95
68912;SHT31;55953;51.650;-0.522;2022-07-22T00:06:22;18.96;70.43
68912;SHT31;55953;51.650;-0.522;2022-07-22T00:08:50;18.94;70.31
68912;SHT31;55953;51.650;-0.522;2022-07-22T00:11:17;18.94;70.24
68912;SHT31;55953;51.650;-0.522;2022-07-22T00:13:45;18.94;69.97
68912;SHT31;55953;51.650;-0.522;2022-07-22T00:16:13;18.94;70.08
68912;SHT31;55953;51.650;-0.522;2022-07-22T00:18:42;18.91;69.89
68912;SHT31;55953;51.650;-0.522;2022-07-22T00:21:10;18.90;69.46
68912;SHT31;55953;51.650;-0.522;2022-07-22T00:23:38;18.89;69.50
68912;SHT31;55953;51.650;-0.522;2022-07-22T00:26:06;18.89;69.68
68912;SHT31;55953;51.650;-0.522;2022-07-22T00:28:33;18.90;69.75
68912;SHT31;55953;51.650;-0.522;2022-07-22T00:31:01;18.91;69.69
68912;SHT31;55953;51.650;-0.522;2022-07-22T00:33:30;18.89;69.63
68912;SHT31;55953;51.650;-0.522;2022-07-22T00:35:58;18.88;69.52
68912;SHT31;55953;51.650;-0.522;2022-07-22T00:38:25;18.91;69.67
68912;SHT31;55953;51.650;-0.522;2022-07-22T00:40:53;18.96;69.40
68912;SHT31;55953;51.650;-0.522;2022-07-22T00:43:21;18.97;69.55
68912;SHT31;55953;51.650;-0.522;2022-07-22T00:45:50;18.95;69.63
68912;SHT31;55953;51.650;-0.522;2022-07-22T00:48:18;18.93;69.74
68912;SHT31;55953;51.650;-0.522;2022-07-22T00:50:47;18.91;69.54
68912;SHT31;55953;51.650;-0.522;2022-07-22T00:53:15;18.91;69.45
68912;SHT31;55953;51.650;-0.522;2022-07-22T00:55:43;18.85;69.57
68912;SHT31;55953;51.650;-0.522;2022-07-22T00:58:11;18.79;69.52
68912;SHT31;55953;51.650;-0.522;2022-07-22T01:00:39;18.77;69.57
68912;SHT31;55953;51.650;-0.522;2022-07-22T01:03:07;18.78;69.61
68912;SHT31;55953;51.650;-0.522;2022-07-22T01:05:35;18.77;69.90
68912;SHT31;55953;51.650;-0.522;2022-07-22T01:08:05;18.77;69.60
68912;SHT31;55953;51.650;-0.522;2022-07-22T01:10:33;18.78;69.22
68912;SHT31;55953;51.650;-0.522;2022-07-22T01:13:01;18.79;69.02
68912;SHT31;55953;51.650;-0.522;2022-07-22T01:15:29;18.78;68.76
68912;SHT31;55953;51.650;-0.522;2022-07-22T01:17:57;18.74;68.53
68912;SHT31;55953;51.650;-0.522;2022-07-22T01:20:25;18.70;68.49
68912;SHT31;55953;51.650;-0.522;2022-07-22T01:22:53;18.65;68.54
68912;SHT31;55953;51.650;-0.522;2022-07-22T01:25:21;18.63;68.58
68912;SHT31;55953;51.650;-0.522;2022-07-22T01:27:49;18.61;68.56
68912;SHT31;55953;51.650;-0.522;2022-07-22T01:30:16;18.58;68.56
68912;SHT31;55953;51.650;-0.522;2022-07-22T01:32:44;18.56;68.64
68912;SHT31;55953;51.650;-0.522;2022-07-22T01:35:12;18.52;68.66
68912;SHT31;55953;51.650;-0.522;2022-07-22T01:37:40;18.50;68.81
68912;SHT31;55953;51.650;-0.522;2022-07-22T01:40:08;18.45;68.76
68912;SHT31;55953;51.650;-0.522;2022-07-22T01:42:37;18.43;68.84
68912;SHT31;55953;51.650;-0.522;2022-07-22T01:45:05;18.41;69.17
68912;SHT31;55953;51.650;-0.522;2022-07-22T01:47:34;18.38;69.35
68912;SHT31;55953;51.650;-0.522;2022-07-22T01:50:03;18.38;69.53
68912;SHT31;55953;51.650;-0.522;2022-07-22T01:52:35;18.36;69.89
68912;SHT31;55953;51.650;-0.522;2022-07-22T01:55:05;18.34;69.53
68912;SHT31;55953;51.650;-0.522;2022-07-22T01:57:37;18.33;69.69
68912;SHT31;55953;51.650;-0.522;2022-07-22T02:00:15;18.32;69.55
68912;SHT31;55953;51.650;-0.522;2022-07-22T02:02:44;18.30;69.78
68912;SHT31;55953;51.650;-0.522;2022-07-22T02:05:11;18.27;69.74
68912;SHT31;55953;51.650;-0.522;2022-07-22T02:07:40;18.28;69.44
68912;SHT31;55953;51.650;-0.522;2022-07-22T02:10:08;18.31;69.81
68912;SHT31;55953;51.650;-0.522;2022-07-22T02:12:37;18.32;69.77
68912;SHT31;55953;51.650;-0.522;2022-07-22T02:15:06;18.32;69.75
68912;SHT31;55953;51.650;-0.522;2022-07-22T02:17:35;18.32;69.60
68912;SHT31;55953;51.650;-0.522;2022-07-22T02:20:04;18.31;69.61
68912;SHT31;55953;51.650;-0.522;2022-07-22T02:22:32;18.28;69.76
68912;SHT31;55953;51.650;-0.522;2022-07-22T02:25:01;18.27;69.79
68912;SHT31;55953;51.650;-0.522;2022-07-22T02:27:30;18.25;69.90
68912;SHT31;55953;51.650;-0.522;2022-07-22T02:29:58;18.23;70.03
68912;SHT31;55953;51.650;-0.522;2022-07-22T02:32:26;18.25;70.00
68912;SHT31;55953;51.650;-0.522;2022-07-22T02:34:54;18.23;70.15
68912;SHT31;55953;51.650;-0.522;2022-07-22T02:37:22;18.19;70.08
68912;SHT31;55953;51.650;-0.522;2022-07-22T02:39:50;18.18;70.37
68912;SHT31;55953;51.650;-0.522;2022-07-22T02:42:18;18.16;70.45
68912;SHT31;55953;51.650;-0.522;2022-07-22T02:44:47;18.17;70.55
68912;SHT31;55953;51.650;-0.522;2022-07-22T02:47:15;18.17;70.52
68912;SHT31;55953;51.650;-0.522;2022-07-22T02:49:43;18.17;70.81
68912;SHT31;55953;51.650;-0.522;2022-07-22T02:52:12;18.18;70.79
68912;SHT31;55953;51.650;-0.522;2022-07-22T02:54:40;18.18;70.70
68912;SHT31;55953;51.650;-0.522;2022-07-22T02:57:08;18.17;70.77
68912;SHT31;55953;51.650;-0.522;2022-07-22T02:59:36;18.18;71.01
68912;SHT31;55953;51.650;-0.522;2022-07-22T03:02:04;18.17;71.20
68912;SHT31;55953;51.650;-0.522;2022-07-22T03:04:32;18.17;71.15
68912;SHT31;55953;51.650;-0.522;2022-07-22T03:07:00;18.17;71.35
68912;SHT31;55953;51.650;-0.522;2022-07-22T03:09:29;18.18;71.33
68912;SHT31;55953;51.650;-0.522;2022-07-22T03:11:56;18.18;71.27
68912;SHT31;55953;51.650;-0.522;2022-07-22T03:14:24;18.18;71.44
68912;SHT31;55953;51.650;-0.522;2022-07-22T03:16:54;18.17;71.51
68912;SHT31;55953;51.650;-0.522;2022-07-22T03:19:22;18.18;71.41
68912;SHT31;55953;51.650;-0.522;2022-07-22T03:21:51;18.19;71.43
68912;SHT31;55953;51.650;-0.522;2022-07-22T03:24:19;18.18;71.54
68912;SHT31;55953;51.650;-0.522;2022-07-22T03:26:46;18.18;71.63
68912;SHT31;55953;51.650;-0.522;2022-07-22T03:29:14;18.16;71.76
68912;SHT31;55953;51.650;-0.522;2022-07-22T03:31:42;18.13;71.77
68912;SHT31;55953;51.650;-0.522;2022-07-22T03:34:10;18.11;71.82
68912;SHT31;55953;51.650;-0.522;2022-07-22T03:36:41;18.10;71.68
68912;SHT31;55953;51.650;-0.522;2022-07-22T03:39:09;18.09;71.76
68912;SHT31;55953;51.650;-0.522;2022-07-22T03:41:37;18.10;71.70
68912;SHT31;55953;51.650;-0.522;2022-07-22T03:44:05;18.09;71.59
68912;SHT31;55953;51.650;-0.522;2022-07-22T03:46:33;18.08;71.65
68912;SHT31;55953;51.650;-0.522;2022-07-22T03:49:01;18.10;71.56
68912;SHT31;55953;51.650;-0.522;2022-07-22T03:51:30;18.09;71.51
68912;SHT31;55953;51.650;-0.522;2022-07-22T03:54:01;18.04;71.74
68912;SHT31;55953;51.650;-0.522;2022-07-22T03:56:29;17.98;71.92
68912;SHT31;55953;51.650;-0.522;2022-07-22T03:58:57;17.97;71.88
68912;SHT31;55953;51.650;-0.522;2022-07-22T04:01:25;18.00;71.87
68912;SHT31;55953;51.650;-0.522;2022-07-22T04:03:54;17.99;71.75
68912;SHT31;55953;51.650;-0.522;2022-07-22T04:06:33;18.01;71.68
68912;SHT31;55953;51.650;-0.522;2022-07-22T04:09:07;18.02;71.72
68912;SHT31;55953;51.650;-0.522;2022-07-22T04:11:35;18.04;71.71
68912;SHT31;55953;51.650;-0.522;2022-07-22T04:14:02;18.06;71.52
68912;SHT31;55953;51.650;-0.522;2022-07-22T04:16:30;18.10;71.64
68912;SHT31;55953;51.650;-0.522;2022-07-22T04:19:04;18.05;71.91
68912;SHT31;55953;51.650;-0.522;2022-07-22T04:21:50;18.01;71.97
68912;SHT31;55953;51.650;-0.522;2022-07-22T04:24:19;18.00;72.04
68912;SHT31;55953;51.650;-0.522;2022-07-22T04:26:47;18.00;71.96
68912;SHT31;55953;51.650;-0.522;2022-07-22T04:29:16;17.98;71.90
68912;SHT31;55953;51.650;-0.522;2022-07-22T04:31:43;17.98;72.12
68912;SHT31;55953;51.650;-0.522;2022-07-22T04:34:14;17.98;72.13
68912;SHT31;55953;51.650;-0.522;2022-07-22T04:36:42;17.97;72.15
68912;SHT31;55953;51.650;-0.522;2022-07-22T04:39:10;17.97;72.28
68912;SHT31;55953;51.650;-0.522;2022-07-22T04:41:41;17.99;72.21
68912;SHT31;55953;51.650;-0.522;2022-07-22T04:44:11;18.00;72.05
68912;SHT31;55953;51.650;-0.522;2022-07-22T04:46:39;18.01;72.18
68912;SHT31;55953;51.650;-0.522;2022-07-22T04:49:07;18.04;72.05
68912;SHT31;55953;51.650;-0.522;2022-07-22T04:51:35;18.06;72.14
68912;SHT31;55953;51.650;-0.522;2022-07-22T04:54:05;18.07;71.96
68912;SHT31;55953;51.650;-0.522;2022-07-22T04:56:36;18.09;71.76
68912;SHT31;55953;51.650;-0.522;2022-07-22T04:59:03;18.10;71.93
68912;SHT31;55953;51.650;-0.522;2022-07-22T05:01:31;18.11;71.77
68912;SHT31;55953;51.650;-0.522;2022-07-22T05:04:00;18.16;71.80
68912;SHT31;55953;51.650;-0.522;2022-07-22T05:06:28;18.16;71.76
68912;SHT31;55953;51.650;-0.522;2022-07-22T05:08:56;18.17;71.80
68912;SHT31;55953;51.650;-0.522;2022-07-22T05:11:26;18.19;71.81
68912;SHT31;55953;51.650;-0.522;2022-07-22T05:13:54;18.22;71.60
68912;SHT31;55953;51.650;-0.522;2022-07-22T05:16:22;18.25;71.75
68912;SHT31;55953;51.650;-0.522;2022-07-22T05:18:50;18.31;71.54
68912;SHT31;55953;51.650;-0.522;2022-07-22T05:21:17;18.32;71.60
68912;SHT31;55953;51.650;-0.522;2022-07-22T05:23:45;18.34;71.35
68912;SHT31;55953;51.650;-0.522;2022-07-22T05:26:13;18.37;71.41
68912;SHT31;55953;51.650;-0.522;2022-07-22T05:28:41;18.40;71.32
68912;SHT31;55953;51.650;-0.522;2022-07-22T05:31:09;18.40;71.41
68912;SHT31;55953;51.650;-0.522;2022-07-22T05:33:37;18.37;71.23
68912;SHT31;55953;51.650;-0.522;2022-07-22T05:36:11;18.35;71.20
68912;SHT31;55953;51.650;-0.522;2022-07-22T05:38:46;18.33;71.17
68912;SHT31;55953;51.650;-0.522;2022-07-22T05:41:15;18.32;71.00
68912;SHT31;55953;51.650;-0.522;2022-07-22T05:43:43;18.33;71.04
68912;SHT31;55953;51.650;-0.522;2022-07-22T05:46:12;18.34;70.79
68912;SHT31;55953;51.650;-0.522;2022-07-22T05:48:42;18.38;70.85
68912;SHT31;55953;51.650;-0.522;2022-07-22T05:51:10;18.40;70.87
68912;SHT31;55953;51.650;-0.522;2022-07-22T05:53:40;18.41;70.73
68912;SHT31;55953;51.650;-0.522;2022-07-22T05:56:09;18.43;70.60
68912;SHT31;55953;51.650;-0.522;2022-07-22T05:58:39;18.51;70.54
68912;SHT31;55953;51.650;-0.522;2022-07-22T06:01:09;18.61;70.59
68912;SHT31;55953;51.650;-0.522;2022-07-22T06:03:38;18.64;70.60
68912;SHT31;55953;51.650;-0.522;2022-07-22T06:06:06;18.65;70.26
68912;SHT31;55953;51.650;-0.522;2022-07-22T06:08:36;18.63;70.17
68912;SHT31;55953;51.650;-0.522;2022-07-22T06:11:04;18.59;70.41
68912;SHT31;55953;51.650;-0.522;2022-07-22T06:13:33;18.58;70.14
68912;SHT31;55953;51.650;-0.522;2022-07-22T06:16:01;18.60;70.32
68912;SHT31;55953;51.650;-0.522;2022-07-22T06:18:30;18.67;69.99
68912;SHT31;55953;51.650;-0.522;2022-07-22T06:20:58;18.77;70.03
68912;SHT31;55953;51.650;-0.522;2022-07-22T06:23:26;18.91;69.52
68912;SHT31;55953;51.650;-0.522;2022-07-22T06:25:54;19.06;69.21
68912;SHT31;55953;51.650;-0.522;2022-07-22T06:28:28;19.14;69.49
68912;SHT31;55953;51.650;-0.522;2022-07-22T06:30:56;19.21;69.30
68912;SHT31;55953;51.650;-0.522;2022-07-22T06:33:25;19.32;68.75
68912;SHT31;55953;51.650;-0.522;2022-07-22T06:35:53;19.40;68.13
68912;SHT31;55953;51.650;-0.522;2022-07-22T06:38:20;19.48;68.07
68912;SHT31;55953;51.650;-0.522;2022-07-22T06:41:31;19.68;68.00
68912;SHT31;55953;51.650;-0.522;2022-07-22T06:44:05;19.81;67.67
68912;SHT31;55953;51.650;-0.522;2022-07-22T06:46:50;19.90;67.40
68912;SHT31;55953;51.650;-0.522;2022-07-22T06:49:20;19.94;67.51
68912;SHT31;55953;51.650;-0.522;2022-07-22T06:51:51;20.00;67.48
68912;SHT31;55953;51.650;-0.522;2022-07-22T06:54:19;20.03;67.24
68912;SHT31;55953;51.650;-0.522;2022-07-22T06:56:47;20.13;67.19
68912;SHT31;55953;51.650;-0.522;2022-07-22T06:59:19;20.12;67.05
68912;SHT31;55953;51.650;-0.522;2022-07-22T07:01:47;20.06;67.20
68912;SHT31;55953;51.650;-0.522;2022-07-22T07:04:16;20.01;67.13
68912;SHT31;55953;51.650;-0.522;2022-07-22T07:06:46;20.01;66.94
68912;SHT31;55953;51.650;-0.522;2022-07-22T07:09:26;20.06;66.93
68912;SHT31;55953;51.650;-0.522;2022-07-22T07:12:02;20.08;66.63
68912;SHT31;55953;51.650;-0.522;2022-07-22T07:14:48;20.20;66.60
68912;SHT31;55953;51.650;-0.522;2022-07-22T07:17:36;20.33;66.47
68912;SHT31;55953;51.650;-0.522;2022-07-22T07:20:06;20.40;66.38
68912;SHT31;55953;51.650;-0.522;2022-07-22T07:22:35;20.41;65.99
68912;SHT31;55953;51.650;-0.522;2022-07-22T07:25:06;20.49;65.77
68912;SHT31;55953;51.650;-0.522;2022-07-22T07:27:50;20.59;65.53
68912;SHT31;55953;51.650;-0.522;2022-07-22T07:30:23;20.62;65.58
68912;SHT31;55953;51.650;-0.522;2022-07-22T07:32:51;20.66;65.75
68912;SHT31;55953;51.650;-0.522;2022-07-22T07:35:19;20.75;65.28
68912;SHT31;55953;51.650;-0.522;2022-07-22T07:37:51;20.87;65.23
68912;SHT31;55953;51.650;-0.522;2022-07-22T07:40:19;20.94;64.95
68912;SHT31;55953;51.650;-0.522;2022-07-22T07:42:48;21.09;64.74
68912;SHT31;55953;51.650;-0.522;2022-07-22T07:45:29;21.29;64.27
68912;SHT31;55953;51.650;-0.522;2022-07-22T07:47:59;21.41;64.19
68912;SHT31;55953;51.650;-0.522;2022-07-22T07:50:28;21.57;63.90
68912;SHT31;55953;51.650;-0.522;2022-07-22T07:52:57;21.75;63.59
68912;SHT31;55953;51.650;-0.522;2022-07-22T07:55:26;21.90;63.21
68912;SHT31;55953;51.650;-0.522;2022-07-22T07:57:54;21.94;62.69
68912;SHT31;55953;51.650;-0.522;2022-07-22T08:00:23;21.87;63.06
68912;SHT31;55953;51.650;-0.522;2022-07-22T08:02:57;21.88;62.73
68912;SHT31;55953;51.650;-0.522;2022-07-22T08:05:31;21.82;63.22
68912;SHT31;55953;51.650;-0.522;2022-07-22T08:08:01;21.77;62.31
68912;SHT31;55953;51.650;-0.522;2022-07-22T08:10:32;21.73;61.88
68912;SHT31;55953;51.650;-0.522;2022-07-22T08:13:23;21.71;61.74
68912;SHT31;55953;51.650;-0.522;2022-07-22T08:16:02;21.77;61.81
68912;SHT31;55953;51.650;-0.522;2022-07-22T08:18:32;21.82;61.79
68912;SHT31;55953;51.650;-0.522;2022-07-22T08:21:00;21.88;61.49
68912;SHT31;55953;51.650;-0.522;2022-07-22T08:23:42;21.94;61.27
68912;SHT31;55953;51.650;-0.522;2022-07-22T08:26:12;22.02;61.12
68912;SHT31;55953;51.650;-0.522;2022-07-22T08:28:40;22.06;60.78
68912;SHT31;55953;51.650;-0.522;2022-07-22T08:31:08;22.06;60.85
68912;SHT31;55953;51.650;-0.522;2022-07-22T08:33:36;22.08;60.40
68912;SHT31;55953;51.650;-0.522;2022-07-22T08:36:04;22.13;60.32
68912;SHT31;55953;51.650;-0.522;2022-07-22T08:38:32;22.13;60.13
68912;SHT31;55953;51.650;-0.522;2022-07-22T08:41:01;22.15;60.08
68912;SHT31;55953;51.650;-0.522;2022-07-22T08:43:34;22.10;58.97
68912;SHT31;55953;51.650;-0.522;2022-07-22T08:46:06;22.06;59.62
68912;SHT31;55953;51.650;-0.522;2022-07-22T08:49:02;22.18;59.43
68912;SHT31;55953;51.650;-0.522;2022-07-22T08:52:10;22.29;59.15
68912;SHT31;55953;51.650;-0.522;2022-07-22T08:54:41;22.39;59.06
68912;SHT31;55953;51.650;-0.522;2022-07-22T08:57:11;22.51;58.67
68912;SHT31;55953;51.650;-0.522;2022-07-22T08:59:52;22.57;57.85
68912;SHT31;55953;51.650;-0.522;2022-07-22T09:02:23;22.58;57.75
68912;SHT31;55953;51.650;-0.522;2022-07-22T09:07:46;22.52;58.29
68912;SHT31;55953;51.650;-0.522;2022-07-22T09:10:32;22.64;58.66
68912;SHT31;55953;51.650;-0.522;2022-07-22T09:13:34;22.87;58.33
68912;SHT31;55953;51.650;-0.522;2022-07-22T09:16:42;22.88;57.16
68912;SHT31;55953;51.650;-0.522;2022-07-22T09:19:46;22.93;57.05
68912;SHT31;55953;51.650;-0.522;2022-07-22T09:22:37;23.05;56.71
68912;SHT31;55953;51.650;-0.522;2022-07-22T09:25:23;23.12;56.02
68912;SHT31;55953;51.650;-0.522;2022-07-22T09:28:17;23.03;55.34
68912;SHT31;55953;51.650;-0.522;2022-07-22T09:31:08;22.99;55.18
68912;SHT31;55953;51.650;-0.522;2022-07-22T09:34:25;23.14;55.23
68912;SHT31;55953;51.650;-0.522;2022-07-22T09:37:07;23.33;54.71
68912;SHT31;55953;51.650;-0.522;2022-07-22T09:39:35;23.49;54.54
68912;SHT31;55953;51.650;-0.522;2022-07-22T09:42:05;23.63;54.26
68912;SHT31;55953;51.650;-0.522;2022-07-22T09:44:34;23.70;54.23
68912;SHT31;55953;51.650;-0.522;2022-07-22T09:47:26;23.79;53.72
68912;SHT31;55953;51.650;-0.522;2022-07-22T09:50:28;23.88;52.65
68912;SHT31;55953;51.650;-0.522;2022-07-22T09:53:23;23.92;52.72
68912;SHT31;55953;51.650;-0.522;2022-07-22T09:56:05;24.04;52.54
68912;SHT31;55953;51.650;-0.522;2022-07-22T09:58:35;24.21;52.49
68912;SHT31;55953;51.650;-0.522;2022-07-22T10:01:08;24.42;52.22
68912;SHT31;55953;51.650;-0.522;2022-07-22T10:03:38;24.46;50.67
68912;SHT31;55953;51.650;-0.522;2022-07-22T10:06:10;24.38;50.14
68912;SHT31;55953;51.650;-0.522;2022-07-22T10:08:38;24.32;50.18
68912;SHT31;55953;51.650;-0.522;2022-07-22T10:11:07;24.38;50.37
68912;SHT31;55953;51.650;-0.522;2022-07-22T10:13:36;24.60;50.52
68912;SHT31;55953;51.650;-0.522;2022-07-22T10:16:08;24.72;50.43
68912;SHT31;55953;51.650;-0.522;2022-07-22T10:18:37;24.84;50.17
68912;SHT31;55953;51.650;-0.522;2022-07-22T10:21:09;25.01;49.72
68912;SHT31;55953;51.650;-0.522;2022-07-22T10:26:50;25.45;48.15
68912;SHT31;55953;51.650;-0.522;2022-07-22T10:29:30;25.49;48.66
68912;SHT31;55953;51.650;-0.522;2022-07-22T10:45:31;25.33;48.38
68912;SHT31;55953;51.650;-0.522;2022-07-22T10:48:06;25.23;48.12
68912;SHT31;55953;51.650;-0.522;2022-07-22T10:53:10;25.43;48.04
68912;SHT31;55953;51.650;-0.522;2022-07-22T10:58:48;25.81;47.80
68912;SHT31;55953;51.650;-0.522;2022-07-22T11:01:21;25.94;46.82
68912;SHT31;55953;51.650;-0.522;2022-07-22T11:03:52;25.86;46.07
68912;SHT31;55953;51.650;-0.522;2022-07-22T11:06:28;25.85;46.57
68912;SHT31;55953;51.650;-0.522;2022-07-22T11:09:02;25.89;46.48
68912;SHT31;55953;51.650;-0.522;2022-07-22T11:12:11;25.90;46.51
68912;SHT31;55953;51.650;-0.522;2022-07-22T11:14:32;25.81;46.00
68912;SHT31;55953;51.650;-0.522;2022-07-22T11:17:09;25.78;46.09
68912;SHT31;55953;51.650;-0.522;2022-07-22T11:19:41;25.71;45.87
68912;SHT31;55953;51.650;-0.522;2022-07-22T11:22:10;25.59;45.91
68912;SHT31;55953;51.650;-0.522;2022-07-22T11:24:41;25.55;46.24
68912;SHT31;55953;51.650;-0.522;2022-07-22T11:27:11;25.54;46.58
68912;SHT31;55953;51.650;-0.522;2022-07-22T11:29:42;25.56;46.81
68912;SHT31;55953;51.650;-0.522;2022-07-22T11:32:16;25.55;46.83
68912;SHT31;55953;51.650;-0.522;2022-07-22T11:34:44;25.66;47.19
68912;SHT31;55953;51.650;-0.522;2022-07-22T11:37:14;25.72;46.59
68912;SHT31;55953;51.650;-0.522;2022-07-22T11:39:45;25.81;46.31
68912;SHT31;55953;51.650;-0.522;2022-07-22T11:42:14;25.83;45.53
68912;SHT31;55953;51.650;-0.522;2022-07-22T11:44:41;25.83;45.33
68912;SHT31;55953;51.650;-0.522;2022-07-22T11:47:09;25.83;45.29
68912;SHT31;55953;51.650;-0.522;2022-07-22T11:49:39;25.85;45.61
68912;SHT31;55953;51.650;-0.522;2022-07-22T11:52:08;25.94;45.30
68912;SHT31;55953;51.650;-0.522;2022-07-22T11:54:41;25.96;45.23
68912;SHT31;55953;51.650;-0.522;2022-07-22T11:57:11;25.99;45.34
68912;SHT31;55953;51.650;-0.522;2022-07-22T11:59:41;25.95;44.97
68912;SHT31;55953;51.650;-0.522;2022-07-22T12:02:09;25.85;44.38
68912;SHT31;55953;51.650;-0.522;2022-07-22T12:04:41;25.68;44.99
68912;SHT31;55953;51.650;-0.522;2022-07-22T12:07:13;25.43;45.47
68912;SHT31;55953;51.650;-0.522;2022-07-22T12:09:43;25.16;45.60
68912;SHT31;55953;51.650;-0.522;2022-07-22T12:12:12;24.92;46.07
68912;SHT31;55953;51.650;-0.522;2022-07-22T12:14:44;24.75;46.10
68912;SHT31;55953;51.650;-0.522;2022-07-22T12:17:16;24.59;46.34
68912;SHT31;55953;51.650;-0.522;2022-07-22T12:19:44;24.48;46.96
68912;SHT31;55953;51.650;-0.522;2022-07-22T12:22:18;24.39;46.97
68912;SHT31;55953;51.650;-0.522;2022-07-22T12:24:59;24.36;47.69
68912;SHT31;55953;51.650;-0.522;2022-07-22T12:27:30;24.40;47.65
68912;SHT31;55953;51.650;-0.522;2022-07-22T12:29:58;24.36;47.85
68912;SHT31;55953;51.650;-0.522;2022-07-22T12:32:27;24.20;48.01
68912;SHT31;55953;51.650;-0.522;2022-07-22T12:35:00;24.07;48.83
68912;SHT31;55953;51.650;-0.522;2022-07-22T12:37:44;24.06;48.75
68912;SHT31;55953;51.650;-0.522;2022-07-22T12:43:03;24.24;48.32
68912;SHT31;55953;51.650;-0.522;2022-07-22T12:45:35;24.22;48.10
68912;SHT31;55953;51.650;-0.522;2022-07-22T12:48:06;24.22;48.28
68912;SHT31;55953;51.650;-0.522;2022-07-22T12:50:42;24.21;47.71
68912;SHT31;55953;51.650;-0.522;2022-07-22T12:53:25;24.10;47.73
68912;SHT31;55953;51.650;-0.522;2022-07-22T12:55:57;23.99;47.85
68912;SHT31;55953;51.650;-0.522;2022-07-22T12:58:29;23.89;47.77
68912;SHT31;55953;51.650;-0.522;2022-07-22T13:01:00;23.81;47.81
68912;SHT31;55953;51.650;-0.522;2022-07-22T13:03:29;23.64;48.23
68912;SHT31;55953;51.650;-0.522;2022-07-22T13:05:58;23.52;48.37
68912;SHT31;55953;51.650;-0.522;2022-07-22T13:08:29;23.48;48.79
68912;SHT31;55953;51.650;-0.522;2022-07-22T13:11:12;23.53;48.63
68912;SHT31;55953;51.650;-0.522;2022-07-22T13:13:41;23.58;48.69
68912;SHT31;55953;51.650;-0.522;2022-07-22T13:16:10;23.62;48.52
68912;SHT31;55953;51.650;-0.522;2022-07-22T13:18:39;23.59;47.74
68912;SHT31;55953;51.650;-0.522;2022-07-22T13:21:07;23.59;48.24
68912;SHT31;55953;51.650;-0.522;2022-07-22T13:23:35;23.51;47.46
68912;SHT31;55953;51.650;-0.522;2022-07-22T13:26:02;23.41;47.89
68912;SHT31;55953;51.650;-0.522;2022-07-22T13:28:30;23.32;48.03
68912;SHT31;55953;51.650;-0.522;2022-07-22T13:30:58;23.25;48.53
68912;SHT31;55953;51.650;-0.522;2022-07-22T13:33:26;23.23;48.82
68912;SHT31;55953;51.650;-0.522;2022-07-22T13:35:54;23.27;48.71
68912;SHT31;55953;51.650;-0.522;2022-07-22T13:38:22;23.36;48.25
68912;SHT31;55953;51.650;-0.522;2022-07-22T13:40:50;23.44;48.36
68912;SHT31;55953;51.650;-0.522;2022-07-22T13:43:20;23.57;48.51
68912;SHT31;55953;51.650;-0.522;2022-07-22T13:45:51;23.76;48.63
68912;SHT31;55953;51.650;-0.522;2022-07-22T13:48:20;23.95;48.36
68912;SHT31;55953;51.650;-0.522;2022-07-22T13:50:48;24.13;48.03
68912;SHT31;55953;51.650;-0.522;2022-07-22T13:53:16;24.23;48.16
68912;SHT31;55953;51.650;-0.522;2022-07-22T13:55:44;24.34;47.96
68912;SHT31;55953;51.650;-0.522;2022-07-22T13:58:12;24.52;48.00
68912;SHT31;55953;51.650;-0.522;2022-07-22T14:00:40;24.64;47.78
68912;SHT31;55953;51.650;-0.522;2022-07-22T14:03:08;24.74;47.42
68912;SHT31;55953;51.650;-0.522;2022-07-22T14:05:36;24.86;47.59
68912;SHT31;55953;51.650;-0.522;2022-07-22T14:08:04;24.96;48.18
68912;SHT31;55953;51.650;-0.522;2022-07-22T14:10:31;25.07;47.37
68912;SHT31;55953;51.650;-0.522;2022-07-22T14:12:59;25.11;46.88
68912;SHT31;55953;51.650;-0.522;2022-07-22T14:15:27;25.12;46.29
68912;SHT31;55953;51.650;-0.522;2022-07-22T14:17:56;25.10;46.78
68912;SHT31;55953;51.650;-0.522;2022-07-22T14:20:24;25.11;46.87
68912;SHT31;55953;51.650;-0.522;2022-07-22T14:22:52;25.15;46.47
68912;SHT31;55953;51.650;-0.522;2022-07-22T14:25:19;25.16;46.00
68912;SHT31;55953;51.650;-0.522;2022-07-22T14:27:48;25.12;45.64
68912;SHT31;55953;51.650;-0.522;2022-07-22T14:30:35;25.12;45.89
68912;SHT31;55953;51.650;-0.522;2022-07-22T14:33:04;25.10;46.42
68912;SHT31;55953;51.650;-0.522;2022-07-22T14:35:32;25.10;46.49
68912;SHT31;55953;51.650;-0.522;2022-07-22T14:38:01;25.01;46.70
68912;SHT31;55953;51.650;-0.522;2022-07-22T14:40:29;24.89;46.64
68912;SHT31;55953;51.650;-0.522;2022-07-22T14:42:57;24.79;47.27
68912;SHT31;55953;51.650;-0.522;2022-07-22T14:45:45;24.75;47.90
68912;SHT31;55953;51.650;-0.522;2022-07-22T14:48:13;24.78;48.07
68912;SHT31;55953;51.650;-0.522;2022-07-22T14:50:41;24.86;47.30
68912;SHT31;55953;51.650;-0.522;2022-07-22T14:53:10;24.96;47.16
68912;SHT31;55953;51.650;-0.522;2022-07-22T14:55:38;25.01;47.27
68912;SHT31;55953;51.650;-0.522;2022-07-22T14:58:06;25.00;46.96
68912;SHT31;55953;51.650;-0.522;2022-07-22T15:00:34;25.02;46.60
68912;SHT31;55953;51.650;-0.522;2022-07-22T15:03:01;25.01;47.08
68912;SHT31;55953;51.650;-0.522;2022-07-22T15:05:29;25.07;47.06
68912;SHT31;55953;51.650;-0.522;2022-07-22T15:07:57;25.01;46.84
68912;SHT31;55953;51.650;-0.522;2022-07-22T15:10:26;24.91;46.66
68912;SHT31;55953;51.650;-0.522;2022-07-22T15:12:54;24.94;47.15
68912;SHT31;55953;51.650;-0.522;2022-07-22T15:15:21;24.95;46.81
68912;SHT31;55953;51.650;-0.522;2022-07-22T15:17:49;24.87;46.98
68912;SHT31;55953;51.650;-0.522;2022-07-22T15:20:17;24.82;46.66
68912;SHT31;55953;51.650;-0.522;2022-07-22T15:22:45;24.73;46.39
68912;SHT31;55953;51.650;-0.522;2022-07-22T15:25:13;24.65;46.69
68912;SHT31;55953;51.650;-0.522;2022-07-22T15:27:41;24.53;46.84
68912;SHT31;55953;51.650;-0.522;2022-07-22T15:30:09;24.48;46.99
68912;SHT31;55953;51.650;-0.522;2022-07-22T15:32:38;24.43;46.98
68912;SHT31;55953;51.650;-0.522;2022-07-22T15:35:06;24.22;46.78
68912;SHT31;55953;51.650;-0.522;2022-07-22T15:37:35;24.06;46.91
68912;SHT31;55953;51.650;-0.522;2022-07-22T15:40:09;23.95;47.10
68912;SHT31;55953;51.650;-0.522;2022-07-22T15:42:39;23.84;47.72
68912;SHT31;55953;51.650;-0.522;2022-07-22T15:45:07;23.70;47.66
68912;SHT31;55953;51.650;-0.522;2022-07-22T15:47:36;23.53;47.73
68912;SHT31;55953;51.650;-0.522;2022-07-22T15:50:04;23.38;48.28
68912;SHT31;55953;51.650;-0.522;2022-07-22T15:52:33;23.23;48.87
68912;SHT31;55953;51.650;-0.522;2022-07-22T15:55:01;23.16;48.89
68912;SHT31;55953;51.650;-0.522;2022-07-22T15:57:28;23.06;49.19
68912;SHT31;55953;51.650;-0.522;2022-07-22T16:00:15;23.01;49.72
68912;SHT31;55953;51.650;-0.522;2022-07-22T16:02:43;23.07;49.54
68912;SHT31;55953;51.650;-0.522;2022-07-22T16:05:11;23.15;49.70
68912;SHT31;55953;51.650;-0.522;2022-07-22T16:07:39;23.30;49.92